QFA532 YSSY-YBBN
Flight info
| Callsign | QFA532 |
|---|---|
| Flight time | 1h 6m |
| Altitude | 35000 |
| Route | OLSEM Y193 BANDA H252 GOMOL |
| Aircraft | B738/M-SADE2E3GHIRWZ/LB1 |
Departure
| Time | 2026-04-23 05:25 |
|---|---|
| Airport | Sydney Kingsford Smith International Airport (YSSY) |
Arrival
| Time | 2026-04-23 06:32 |
|---|---|
| Airport | Brisbane International Airport (YBBN) |
| Time | Latitude | Longitude | Altitude | Speed | Heading |
|---|---|---|---|---|---|
| 2026-04-23 05:02 | -33.93114 | 151.17714 | 29 ft | 0 kts | 190° |
| 2026-04-23 05:10 | -33.93111 | 151.17715 | 29 ft | 3 kts | 190° |
| 2026-04-23 05:10 | -33.93084 | 151.17718 | 29 ft | 4 kts | 186° |
| 2026-04-23 05:10 | -33.93065 | 151.17727 | 29 ft | 4 kts | 226° |
| 2026-04-23 05:11 | -33.93055 | 151.17753 | 29 ft | 4 kts | 276° |
| 2026-04-23 05:11 | -33.93059 | 151.17779 | 29 ft | 0 kts | 280° |
| 2026-04-23 05:14 | -33.93058 | 151.17777 | 29 ft | 1 kts | 280° |
| 2026-04-23 05:15 | -33.93054 | 151.17755 | 29 ft | 4 kts | 290° |
| 2026-04-23 05:15 | -33.93039 | 151.17721 | 29 ft | 6 kts | 296° |
| 2026-04-23 05:15 | -33.93017 | 151.17662 | 29 ft | 10 kts | 288° |
| 2026-04-23 05:15 | -33.93009 | 151.17574 | 29 ft | 11 kts | 250° |
| 2026-04-23 05:16 | -33.93071 | 151.17524 | 29 ft | 11 kts | 202° |
| 2026-04-23 05:16 | -33.93145 | 151.17530 | 29 ft | 11 kts | 167° |
| 2026-04-23 05:16 | -33.93215 | 151.17550 | 29 ft | 10 kts | 167° |
| 2026-04-23 05:16 | -33.93283 | 151.17568 | 29 ft | 10 kts | 167° |
| 2026-04-23 05:17 | -33.93350 | 151.17583 | 29 ft | 10 kts | 169° |
| 2026-04-23 05:17 | -33.93417 | 151.17593 | 29 ft | 10 kts | 186° |
| 2026-04-23 05:17 | -33.93491 | 151.17587 | 29 ft | 11 kts | 169° |
| 2026-04-23 05:17 | -33.93572 | 151.17607 | 29 ft | 12 kts | 168° |
| 2026-04-23 05:18 | -33.93656 | 151.17642 | 29 ft | 13 kts | 152° |
| 2026-04-23 05:18 | -33.93739 | 151.17688 | 29 ft | 13 kts | 167° |
| 2026-04-23 05:18 | -33.93830 | 151.17708 | 29 ft | 13 kts | 168° |
| 2026-04-23 05:18 | -33.93888 | 151.17768 | 28 ft | 11 kts | 140° |
| 2026-04-23 05:19 | -33.93963 | 151.17795 | 28 ft | 12 kts | 168° |
| 2026-04-23 05:19 | -33.94054 | 151.17821 | 28 ft | 15 kts | 166° |
| 2026-04-23 05:19 | -33.94153 | 151.17846 | 29 ft | 14 kts | 168° |
| 2026-04-23 05:19 | -33.94248 | 151.17869 | 29 ft | 14 kts | 168° |
| 2026-04-23 05:20 | -33.94339 | 151.17892 | 29 ft | 13 kts | 167° |
| 2026-04-23 05:20 | -33.94427 | 151.17914 | 29 ft | 13 kts | 179° |
| 2026-04-23 05:20 | -33.94508 | 151.17880 | 29 ft | 13 kts | 183° |
| 2026-04-23 05:20 | -33.94595 | 151.17900 | 29 ft | 12 kts | 168° |
| 2026-04-23 05:21 | -33.94678 | 151.17923 | 29 ft | 12 kts | 166° |
| 2026-04-23 05:21 | -33.94764 | 151.17944 | 29 ft | 13 kts | 169° |
| 2026-04-23 05:21 | -33.94848 | 151.17966 | 29 ft | 12 kts | 168° |
| 2026-04-23 05:21 | -33.94930 | 151.17987 | 29 ft | 12 kts | 167° |
| 2026-04-23 05:22 | -33.95012 | 151.18009 | 29 ft | 13 kts | 167° |
| 2026-04-23 05:22 | -33.95098 | 151.18065 | 29 ft | 15 kts | 112° |
| 2026-04-23 05:22 | -33.95085 | 151.18186 | 29 ft | 15 kts | 77° |
| 2026-04-23 05:22 | -33.95064 | 151.18303 | 29 ft | 14 kts | 78° |
| 2026-04-23 05:23 | -33.95044 | 151.18415 | 29 ft | 13 kts | 78° |
| 2026-04-23 05:23 | -33.95025 | 151.18524 | 29 ft | 14 kts | 78° |
| 2026-04-23 05:23 | -33.95002 | 151.18649 | 29 ft | 17 kts | 78° |
| 2026-04-23 05:23 | -33.94975 | 151.18799 | 27 ft | 13 kts | 78° |
| 2026-04-23 05:24 | -33.94990 | 151.18832 | 27 ft | 4 kts | 153° |
| 2026-04-23 05:24 | -33.95024 | 151.18843 | 23 ft | 7 kts | 167° |
| 2026-04-23 05:24 | -33.95244 | 151.18902 | 22 ft | 68 kts | 168° |
| 2026-04-23 05:24 | -33.95942 | 151.19081 | 27 ft | 133 kts | 168° |
| 2026-04-23 05:25 | -33.97011 | 151.19345 | 259 ft | 167 kts | 168° |
| 2026-04-23 05:25 | -33.98101 | 151.19639 | 1246 ft | 160 kts | 157° |
| 2026-04-23 05:25 | -33.98985 | 151.20482 | 1680 ft | 179 kts | 123° |
| 2026-04-23 05:25 | -33.99626 | 151.21885 | 1977 ft | 201 kts | 120° |
| 2026-04-23 05:26 | -34.00319 | 151.23459 | 2203 ft | 219 kts | 120° |
| 2026-04-23 05:26 | -34.01181 | 151.24997 | 2689 ft | 224 kts | 138° |
| 2026-04-23 05:26 | -34.02389 | 151.26157 | 3254 ft | 229 kts | 142° |
| 2026-04-23 05:26 | -34.03685 | 151.27413 | 3591 ft | 247 kts | 137° |
| 2026-04-23 05:27 | -34.04622 | 151.29177 | 4231 ft | 255 kts | 107° |
| 2026-04-23 05:27 | -34.04755 | 151.31297 | 4819 ft | 256 kts | 86° |
| 2026-04-23 05:27 | -34.04229 | 151.33386 | 5406 ft | 269 kts | 57° |
| 2026-04-23 05:27 | -34.02829 | 151.34823 | 6310 ft | 270 kts | 32° |
| 2026-04-23 05:28 | -34.01168 | 151.35924 | 7060 ft | 275 kts | 31° |
| 2026-04-23 05:28 | -33.99468 | 151.37045 | 7721 ft | 281 kts | 31° |
| 2026-04-23 05:28 | -33.97743 | 151.38186 | 8438 ft | 284 kts | 31° |
| 2026-04-23 05:28 | -33.95995 | 151.39350 | 9155 ft | 288 kts | 32° |
| 2026-04-23 05:29 | -33.94225 | 151.40538 | 9887 ft | 292 kts | 32° |
| 2026-04-23 05:29 | -33.92446 | 151.41739 | 10404 ft | 304 kts | 32° |
| 2026-04-23 05:29 | -33.90525 | 151.43044 | 10559 ft | 328 kts | 32° |
| 2026-04-23 05:29 | -33.88477 | 151.44438 | 10711 ft | 349 kts | 32° |
| 2026-04-23 05:30 | -33.86302 | 151.45916 | 11003 ft | 364 kts | 32° |
| 2026-04-23 05:30 | -33.84071 | 151.47431 | 11559 ft | 369 kts | 32° |
| 2026-04-23 05:30 | -33.81818 | 151.48959 | 12234 ft | 372 kts | 32° |
| 2026-04-23 05:30 | -33.79580 | 151.50477 | 12906 ft | 375 kts | 32° |
| 2026-04-23 05:31 | -33.77288 | 151.52033 | 13554 ft | 379 kts | 32° |
| 2026-04-23 05:31 | -33.74972 | 151.53605 | 14211 ft | 384 kts | 32° |
| 2026-04-23 05:31 | -33.72651 | 151.55179 | 14824 ft | 388 kts | 32° |
| 2026-04-23 05:31 | -33.70287 | 151.56782 | 15451 ft | 392 kts | 32° |
| 2026-04-23 05:32 | -33.67887 | 151.58409 | 16090 ft | 396 kts | 32° |
| 2026-04-23 05:32 | -33.65496 | 151.60028 | 16692 ft | 400 kts | 32° |
| 2026-04-23 05:32 | -33.63178 | 151.61703 | 17679 ft | 384 kts | 36° |
| 2026-04-23 05:32 | -33.60944 | 151.63464 | 18513 ft | 387 kts | 37° |
| 2026-04-23 05:33 | -33.58661 | 151.65316 | 18651 ft | 405 kts | 37° |
| 2026-04-23 05:33 | -33.56287 | 151.67233 | 18930 ft | 416 kts | 37° |
| 2026-04-23 05:33 | -33.54678 | 151.68515 | 19257 ft | 419 kts | 37° |
| 2026-04-23 05:33 | -33.51430 | 151.71077 | 19982 ft | 423 kts | 36° |
| 2026-04-23 05:34 | -33.48806 | 151.72756 | 20504 ft | 430 kts | 26° |
| 2026-04-23 05:34 | -33.46922 | 151.73562 | 20850 ft | 435 kts | 18° |
| 2026-04-23 05:34 | -33.43971 | 151.74455 | 21375 ft | 439 kts | 15° |
| 2026-04-23 05:34 | -33.40989 | 151.75325 | 21856 ft | 442 kts | 16° |
| 2026-04-23 05:35 | -33.37006 | 151.76550 | 22497 ft | 447 kts | 17° |
| 2026-04-23 05:35 | -33.34965 | 151.77199 | 22829 ft | 449 kts | 17° |
| 2026-04-23 05:35 | -33.31970 | 151.78165 | 23294 ft | 453 kts | 17° |
| 2026-04-23 05:35 | -33.28900 | 151.79163 | 23736 ft | 457 kts | 17° |
| 2026-04-23 05:36 | -33.25814 | 151.80166 | 24151 ft | 460 kts | 17° |
| 2026-04-23 05:36 | -33.22708 | 151.81173 | 24557 ft | 462 kts | 17° |
| 2026-04-23 05:36 | -33.19625 | 151.82170 | 24949 ft | 465 kts | 17° |
| 2026-04-23 05:36 | -33.16487 | 151.83183 | 25308 ft | 468 kts | 17° |
| 2026-04-23 05:37 | -33.13325 | 151.84202 | 25682 ft | 471 kts | 17° |
| 2026-04-23 05:37 | -33.10144 | 151.85225 | 26039 ft | 474 kts | 17° |
| 2026-04-23 05:37 | -33.06943 | 151.86253 | 26375 ft | 477 kts | 17° |
| 2026-04-23 05:37 | -33.03765 | 151.87274 | 26726 ft | 479 kts | 17° |
| 2026-04-23 05:38 | -33.00531 | 151.88311 | 27076 ft | 482 kts | 17° |
| 2026-04-23 05:38 | -32.97280 | 151.89353 | 27414 ft | 484 kts | 17° |
| 2026-04-23 05:38 | -32.94021 | 151.90397 | 27742 ft | 487 kts | 17° |
| 2026-04-23 05:38 | -32.90740 | 151.91447 | 28069 ft | 490 kts | 16° |
| 2026-04-23 05:39 | -32.87441 | 151.92503 | 28371 ft | 492 kts | 16° |
| 2026-04-23 05:39 | -32.84107 | 151.93568 | 28661 ft | 496 kts | 16° |
| 2026-04-23 05:39 | -32.80752 | 151.94640 | 28907 ft | 499 kts | 16° |
| 2026-04-23 05:39 | -32.77376 | 151.95718 | 29171 ft | 503 kts | 16° |
| 2026-04-23 05:40 | -32.74033 | 151.96784 | 29492 ft | 504 kts | 16° |
| 2026-04-23 05:40 | -32.70629 | 151.97868 | 29913 ft | 503 kts | 16° |
| 2026-04-23 05:40 | -32.67240 | 151.98946 | 30387 ft | 501 kts | 16° |
| 2026-04-23 05:40 | -32.63910 | 152.00005 | 30760 ft | 500 kts | 16° |
| 2026-04-23 05:41 | -32.60539 | 152.01077 | 31111 ft | 500 kts | 16° |
| 2026-04-23 05:41 | -32.57174 | 152.02146 | 31496 ft | 498 kts | 16° |
| 2026-04-23 05:41 | -32.53862 | 152.03197 | 31877 ft | 497 kts | 16° |
| 2026-04-23 05:41 | -32.50516 | 152.04258 | 32241 ft | 496 kts | 15° |
| 2026-04-23 05:42 | -32.47175 | 152.05317 | 32593 ft | 495 kts | 15° |
| 2026-04-23 05:42 | -32.43885 | 152.06359 | 32953 ft | 493 kts | 15° |
| 2026-04-23 05:42 | -32.40560 | 152.07411 | 33330 ft | 492 kts | 15° |
| 2026-04-23 05:42 | -32.37246 | 152.08459 | 33695 ft | 491 kts | 15° |
| 2026-04-23 05:43 | -32.33991 | 152.09488 | 34050 ft | 489 kts | 15° |
| 2026-04-23 05:43 | -32.30693 | 152.10529 | 34387 ft | 488 kts | 15° |
| 2026-04-23 05:43 | -32.27430 | 152.11559 | 34665 ft | 488 kts | 15° |
| 2026-04-23 05:43 | -32.24147 | 152.12594 | 34937 ft | 487 kts | 15° |
| 2026-04-23 05:44 | -32.20861 | 152.13629 | 35223 ft | 485 kts | 14° |
| 2026-04-23 05:44 | -32.17636 | 152.14644 | 35515 ft | 484 kts | 14° |
| 2026-04-23 05:44 | -32.14382 | 152.15668 | 35770 ft | 483 kts | 14° |
| 2026-04-23 05:44 | -32.11122 | 152.16693 | 35993 ft | 484 kts | 14° |
| 2026-04-23 05:45 | -32.07865 | 152.17716 | 36234 ft | 483 kts | 14° |
| 2026-04-23 05:45 | -32.04613 | 152.18736 | 36501 ft | 482 kts | 14° |
| 2026-04-23 05:45 | -32.01374 | 152.19752 | 36783 ft | 480 kts | 14° |
| 2026-04-23 05:45 | -31.98145 | 152.20764 | 37050 ft | 479 kts | 14° |
| 2026-04-23 05:46 | -31.94919 | 152.21775 | 37283 ft | 479 kts | 14° |
| 2026-04-23 05:46 | -31.88476 | 152.23790 | 37342 ft | 484 kts | 14° |
| 2026-04-23 05:47 | -31.81966 | 152.25823 | 37328 ft | 482 kts | 14° |
| 2026-04-23 05:47 | -31.75554 | 152.27825 | 37326 ft | 476 kts | 13° |
| 2026-04-23 05:48 | -31.69157 | 152.29817 | 37326 ft | 472 kts | 13° |
| 2026-04-23 05:48 | -31.62847 | 152.31779 | 37332 ft | 470 kts | 13° |
| 2026-04-23 05:49 | -31.56492 | 152.33753 | 37336 ft | 470 kts | 13° |
| 2026-04-23 05:49 | -31.50183 | 152.35710 | 37341 ft | 470 kts | 13° |
| 2026-04-23 05:50 | -31.43826 | 152.37679 | 37339 ft | 472 kts | 13° |
| 2026-04-23 05:50 | -31.37454 | 152.39649 | 37341 ft | 474 kts | 13° |
| 2026-04-23 05:51 | -31.31079 | 152.41618 | 37320 ft | 476 kts | 13° |
| 2026-04-23 05:51 | -31.24658 | 152.43599 | 37333 ft | 477 kts | 13° |
| 2026-04-23 05:52 | -31.18263 | 152.45569 | 37329 ft | 479 kts | 13° |
| 2026-04-23 05:52 | -31.11788 | 152.47560 | 37322 ft | 479 kts | 13° |
| 2026-04-23 05:53 | -31.05359 | 152.49535 | 37322 ft | 479 kts | 13° |
| 2026-04-23 05:53 | -30.98942 | 152.51504 | 37316 ft | 478 kts | 13° |
| 2026-04-23 05:54 | -30.92503 | 152.53476 | 37330 ft | 477 kts | 12° |
| 2026-04-23 05:54 | -30.86113 | 152.55432 | 37317 ft | 476 kts | 12° |
| 2026-04-23 05:55 | -30.79699 | 152.57392 | 37313 ft | 475 kts | 12° |
| 2026-04-23 05:55 | -30.73390 | 152.59576 | 37311 ft | 474 kts | 15° |
| 2026-04-23 05:56 | -30.67141 | 152.61920 | 37314 ft | 473 kts | 15° |
| 2026-04-23 05:56 | -30.60862 | 152.64248 | 37303 ft | 472 kts | 15° |
| 2026-04-23 05:57 | -30.54594 | 152.66531 | 37313 ft | 471 kts | 15° |
| 2026-04-23 05:57 | -30.48354 | 152.68788 | 37315 ft | 472 kts | 15° |
| 2026-04-23 05:58 | -30.42094 | 152.71049 | 37318 ft | 472 kts | 15° |
| 2026-04-23 05:58 | -30.35803 | 152.73320 | 37315 ft | 473 kts | 15° |
| 2026-04-23 05:59 | -30.29517 | 152.75587 | 37318 ft | 473 kts | 14° |
| 2026-04-23 05:59 | -30.23262 | 152.77840 | 37308 ft | 473 kts | 14° |
| 2026-04-23 06:00 | -30.16951 | 152.80110 | 37302 ft | 474 kts | 14° |
| 2026-04-23 06:00 | -30.10643 | 152.82376 | 37303 ft | 473 kts | 14° |
| 2026-04-23 06:01 | -30.04382 | 152.84622 | 37293 ft | 474 kts | 14° |
| 2026-04-23 06:01 | -29.98102 | 152.86873 | 37293 ft | 474 kts | 14° |
| 2026-04-23 06:02 | -29.91799 | 152.89128 | 37279 ft | 473 kts | 14° |
| 2026-04-23 06:02 | -29.85486 | 152.91373 | 37285 ft | 473 kts | 14° |
| 2026-04-23 06:03 | -29.79225 | 152.93589 | 37290 ft | 472 kts | 14° |
| 2026-04-23 06:03 | -29.72976 | 152.95800 | 37284 ft | 472 kts | 14° |
| 2026-04-23 06:04 | -29.66681 | 152.98026 | 37268 ft | 471 kts | 14° |
| 2026-04-23 06:04 | -29.60400 | 153.00245 | 37276 ft | 470 kts | 14° |
| 2026-04-23 06:05 | -29.54173 | 153.02441 | 37284 ft | 470 kts | 14° |
| 2026-04-23 06:05 | -29.47911 | 153.04648 | 37278 ft | 469 kts | 14° |
| 2026-04-23 06:06 | -29.41698 | 153.06834 | 37273 ft | 468 kts | 13° |
| 2026-04-23 06:06 | -29.35433 | 153.09035 | 36884 ft | 474 kts | 13° |
| 2026-04-23 06:06 | -29.32285 | 153.10141 | 36404 ft | 471 kts | 14° |
| 2026-04-23 06:07 | -29.29159 | 153.11238 | 35813 ft | 471 kts | 14° |
| 2026-04-23 06:07 | -29.26013 | 153.12343 | 35186 ft | 472 kts | 14° |
| 2026-04-23 06:07 | -29.22905 | 153.13436 | 34549 ft | 474 kts | 14° |
| 2026-04-23 06:07 | -29.19729 | 153.14554 | 33803 ft | 476 kts | 14° |
| 2026-04-23 06:08 | -29.16554 | 153.15672 | 33097 ft | 476 kts | 14° |
| 2026-04-23 06:08 | -29.13425 | 153.16774 | 32481 ft | 475 kts | 14° |
| 2026-04-23 06:08 | -29.10272 | 153.17884 | 32022 ft | 470 kts | 14° |
| 2026-04-23 06:08 | -29.07154 | 153.18981 | 31541 ft | 467 kts | 14° |
| 2026-04-23 06:09 | -29.04049 | 153.20072 | 31078 ft | 463 kts | 15° |
| 2026-04-23 06:09 | -29.01007 | 153.21140 | 30618 ft | 460 kts | 15° |
| 2026-04-23 06:09 | -28.97944 | 153.22214 | 30119 ft | 458 kts | 15° |
| 2026-04-23 06:09 | -28.94907 | 153.23279 | 29582 ft | 454 kts | 15° |
| 2026-04-23 06:10 | -28.91885 | 153.24337 | 29084 ft | 450 kts | 15° |
| 2026-04-23 06:10 | -28.88935 | 153.25370 | 28620 ft | 446 kts | 15° |
| 2026-04-23 06:10 | -28.85963 | 153.26409 | 28134 ft | 442 kts | 15° |
| 2026-04-23 06:10 | -28.83025 | 153.27436 | 27662 ft | 439 kts | 15° |
| 2026-04-23 06:11 | -28.80102 | 153.28457 | 27200 ft | 436 kts | 15° |
| 2026-04-23 06:11 | -28.77240 | 153.29457 | 26746 ft | 433 kts | 16° |
| 2026-04-23 06:11 | -28.74355 | 153.30464 | 26286 ft | 430 kts | 16° |
| 2026-04-23 06:11 | -28.71496 | 153.31460 | 25823 ft | 427 kts | 16° |
| 2026-04-23 06:12 | -28.68687 | 153.32440 | 25380 ft | 425 kts | 16° |
| 2026-04-23 06:12 | -28.65861 | 153.33424 | 24915 ft | 424 kts | 16° |
| 2026-04-23 06:12 | -28.60216 | 153.35389 | 23986 ft | 421 kts | 17° |
| 2026-04-23 06:13 | -28.57411 | 153.36365 | 23466 ft | 420 kts | 17° |
| 2026-04-23 06:13 | -28.54646 | 153.37326 | 22983 ft | 418 kts | 17° |
| 2026-04-23 06:13 | -28.51873 | 153.38290 | 22506 ft | 415 kts | 17° |
| 2026-04-23 06:13 | -28.49111 | 153.39249 | 22041 ft | 411 kts | 17° |
| 2026-04-23 06:14 | -28.46408 | 153.40187 | 21606 ft | 408 kts | 17° |
| 2026-04-23 06:14 | -28.43692 | 153.41130 | 21165 ft | 406 kts | 17° |
| 2026-04-23 06:14 | -28.40992 | 153.42066 | 20709 ft | 403 kts | 17° |
| 2026-04-23 06:14 | -28.38315 | 153.42993 | 20279 ft | 401 kts | 17° |
| 2026-04-23 06:15 | -28.35647 | 153.43918 | 19833 ft | 400 kts | 17° |
| 2026-04-23 06:15 | -28.32988 | 153.44838 | 19394 ft | 398 kts | 18° |
| 2026-04-23 06:15 | -28.30370 | 153.45744 | 18946 ft | 397 kts | 18° |
| 2026-04-23 06:15 | -28.27726 | 153.46659 | 18493 ft | 396 kts | 18° |
| 2026-04-23 06:16 | -28.25088 | 153.47571 | 18002 ft | 394 kts | 18° |
| 2026-04-23 06:16 | -28.22463 | 153.48478 | 17543 ft | 392 kts | 18° |
| 2026-04-23 06:16 | -28.19891 | 153.49366 | 17104 ft | 389 kts | 18° |
| 2026-04-23 06:16 | -28.17271 | 153.50156 | 16648 ft | 387 kts | 8° |
| 2026-04-23 06:17 | -28.14587 | 153.50046 | 16112 ft | 387 kts | 349° |
| 2026-04-23 06:17 | -28.11930 | 153.49482 | 15633 ft | 387 kts | 348° |
| 2026-04-23 06:17 | -28.09323 | 153.48905 | 15208 ft | 385 kts | 348° |
| 2026-04-23 06:17 | -28.06688 | 153.48326 | 14770 ft | 383 kts | 348° |
| 2026-04-23 06:18 | -28.04064 | 153.47760 | 14354 ft | 381 kts | 349° |
| 2026-04-23 06:18 | -28.01490 | 153.47216 | 13908 ft | 380 kts | 349° |
| 2026-04-23 06:18 | -27.98893 | 153.46674 | 13454 ft | 378 kts | 349° |
| 2026-04-23 06:18 | -27.96315 | 153.46140 | 13020 ft | 375 kts | 349° |
| 2026-04-23 06:19 | -27.93747 | 153.45609 | 12594 ft | 372 kts | 349° |
| 2026-04-23 06:19 | -27.91205 | 153.45085 | 12173 ft | 369 kts | 350° |
| 2026-04-23 06:19 | -27.88683 | 153.44564 | 11770 ft | 366 kts | 350° |
| 2026-04-23 06:19 | -27.86208 | 153.44054 | 11374 ft | 364 kts | 350° |
| 2026-04-23 06:20 | -27.83716 | 153.43540 | 11026 ft | 360 kts | 350° |
| 2026-04-23 06:20 | -27.82093 | 153.43205 | 10927 ft | 353 kts | 351° |
| 2026-04-23 06:20 | -27.79711 | 153.42714 | 10768 ft | 343 kts | 351° |
| 2026-04-23 06:20 | -27.77386 | 153.42234 | 10613 ft | 334 kts | 351° |
| 2026-04-23 06:21 | -27.74402 | 153.41619 | 10430 ft | 323 kts | 351° |
| 2026-04-23 06:21 | -27.72215 | 153.41169 | 10290 ft | 315 kts | 351° |
| 2026-04-23 06:21 | -27.70794 | 153.40876 | 10210 ft | 310 kts | 351° |
| 2026-04-23 06:21 | -27.68709 | 153.40446 | 10029 ft | 303 kts | 351° |
| 2026-04-23 06:22 | -27.66609 | 153.40016 | 9587 ft | 307 kts | 351° |
| 2026-04-23 06:22 | -27.64480 | 153.39579 | 9113 ft | 312 kts | 351° |
| 2026-04-23 06:22 | -27.62348 | 153.39127 | 8787 ft | 311 kts | 350° |
| 2026-04-23 06:22 | -27.60220 | 153.38653 | 8489 ft | 310 kts | 350° |
| 2026-04-23 06:23 | -27.58105 | 153.38178 | 8187 ft | 308 kts | 350° |
| 2026-04-23 06:23 | -27.56008 | 153.37707 | 7899 ft | 306 kts | 350° |
| 2026-04-23 06:23 | -27.53948 | 153.37247 | 7605 ft | 302 kts | 350° |
| 2026-04-23 06:23 | -27.51910 | 153.36792 | 7316 ft | 294 kts | 350° |
| 2026-04-23 06:24 | -27.49925 | 153.36351 | 7046 ft | 287 kts | 350° |
| 2026-04-23 06:24 | -27.47972 | 153.35917 | 6787 ft | 284 kts | 350° |
| 2026-04-23 06:24 | -27.46039 | 153.35488 | 6529 ft | 283 kts | 350° |
| 2026-04-23 06:24 | -27.44126 | 153.35063 | 6260 ft | 284 kts | 350° |
| 2026-04-23 06:25 | -27.42160 | 153.34627 | 6008 ft | 289 kts | 349° |
| 2026-04-23 06:25 | -27.40169 | 153.34186 | 5719 ft | 290 kts | 350° |
| 2026-04-23 06:25 | -27.38209 | 153.33751 | 5449 ft | 290 kts | 350° |
| 2026-04-23 06:25 | -27.36232 | 153.33312 | 5179 ft | 289 kts | 350° |
| 2026-04-23 06:26 | -27.34241 | 153.32898 | 4887 ft | 288 kts | 352° |
| 2026-04-23 06:26 | -27.32291 | 153.32529 | 4590 ft | 284 kts | 352° |
| 2026-04-23 06:26 | -27.30367 | 153.32166 | 4311 ft | 276 kts | 351° |
| 2026-04-23 06:26 | -27.28594 | 153.31442 | 4023 ft | 268 kts | 322° |
| 2026-04-23 06:27 | -27.27391 | 153.29915 | 3724 ft | 257 kts | 294° |
| 2026-04-23 06:27 | -27.26792 | 153.28070 | 3439 ft | 248 kts | 278° |
| 2026-04-23 06:27 | -27.26548 | 153.26172 | 3081 ft | 239 kts | 259° |
| 2026-04-23 06:27 | -27.27033 | 153.24528 | 2810 ft | 215 kts | 234° |
| 2026-04-23 06:28 | -27.27797 | 153.23133 | 2515 ft | 203 kts | 229° |
| 2026-04-23 06:28 | -27.28549 | 153.21831 | 2247 ft | 193 kts | 229° |
| 2026-04-23 06:28 | -27.29262 | 153.20589 | 1990 ft | 185 kts | 229° |
| 2026-04-23 06:28 | -27.29933 | 153.19412 | 1741 ft | 176 kts | 229° |
| 2026-04-23 06:29 | -27.30587 | 153.18268 | 1546 ft | 173 kts | 227° |
| 2026-04-23 06:29 | -27.31317 | 153.17245 | 1337 ft | 160 kts | 216° |
| 2026-04-23 06:29 | -27.32128 | 153.16510 | 1121 ft | 143 kts | 204° |
| 2026-04-23 06:29 | -27.32967 | 153.15984 | 968 ft | 138 kts | 201° |
| 2026-04-23 06:30 | -27.33832 | 153.15493 | 786 ft | 141 kts | 200° |
| 2026-04-23 06:30 | -27.34716 | 153.14992 | 633 ft | 144 kts | 198° |
| 2026-04-23 06:30 | -27.35585 | 153.14506 | 488 ft | 136 kts | 200° |
| 2026-04-23 06:30 | -27.36446 | 153.14004 | 269 ft | 142 kts | 200° |
| 2026-04-23 06:31 | -27.37348 | 153.13491 | 107 ft | 146 kts | 202° |
| 2026-04-23 06:31 | -27.38223 | 153.12990 | 23 ft | 133 kts | 206° |
| 2026-04-23 06:31 | -27.38907 | 153.12612 | 21 ft | 90 kts | 206° |
| 2026-04-23 06:31 | -27.39365 | 153.12351 | 19 ft | 67 kts | 207° |
| 2026-04-23 06:32 | -27.39566 | 153.12220 | 20 ft | 19 kts | 234° |
| 2026-04-23 06:32 | -27.39576 | 153.12123 | 20 ft | 16 kts | 287° |
| 2026-04-23 06:32 | -27.39528 | 153.12014 | 22 ft | 15 kts | 295° |
| 2026-04-23 06:32 | -27.39503 | 153.12018 | 21 ft | 6 kts | 53° |
| 2026-04-23 06:33 | -27.39463 | 153.12063 | 21 ft | 11 kts | 28° |
| 2026-04-23 06:33 | -27.39391 | 153.12104 | 21 ft | 12 kts | 32° |
| 2026-04-23 06:33 | -27.39320 | 153.12145 | 22 ft | 11 kts | 26° |
| 2026-04-23 06:33 | -27.39249 | 153.12185 | 21 ft | 12 kts | 27° |
| 2026-04-23 06:34 | -27.39163 | 153.12213 | 20 ft | 15 kts | 343° |
| 2026-04-23 06:34 | -27.39082 | 153.12150 | 20 ft | 15 kts | 359° |
| 2026-04-23 06:34 | -27.38992 | 153.12194 | 20 ft | 14 kts | 28° |
| 2026-04-23 06:34 | -27.38907 | 153.12242 | 20 ft | 13 kts | 26° |
| 2026-04-23 06:35 | -27.38826 | 153.12281 | 20 ft | 13 kts | 357° |
| 2026-04-23 06:35 | -27.38790 | 153.12241 | 20 ft | 1 kts | 297° |
| 2026-04-23 06:35 | -27.38785 | 153.12234 | 20 ft | 2 kts | 315° |
| 2026-04-23 06:35 | -27.38759 | 153.12238 | 22 ft | 6 kts | 29° |
| 2026-04-23 06:36 | -27.38713 | 153.12266 | 21 ft | 8 kts | 27° |
| 2026-04-23 06:36 | -27.38665 | 153.12295 | 20 ft | 8 kts | 28° |
| 2026-04-23 06:36 | -27.38617 | 153.12321 | 22 ft | 7 kts | 26° |
| 2026-04-23 06:36 | -27.38587 | 153.12338 | 20 ft | 4 kts | 26° |
| 2026-04-23 06:37 | -27.38564 | 153.12352 | 20 ft | 4 kts | 28° |
| 2026-04-23 06:37 | -27.38531 | 153.12356 | 22 ft | 6 kts | 333° |
| 2026-04-23 06:37 | -27.38505 | 153.12309 | 20 ft | 8 kts | 297° |
| 2026-04-23 06:37 | -27.38484 | 153.12243 | 20 ft | 9 kts | 271° |
| 2026-04-23 06:38 | -27.38496 | 153.12188 | 20 ft | 6 kts | 286° |
| 2026-04-23 06:38 | -27.38484 | 153.12156 | 21 ft | 2 kts | 297° |
| 2026-04-23 06:38 | -27.38479 | 153.12147 | 20 ft | 0 kts | 297° |
| 2026-04-23 06:38 | -27.38478 | 153.12144 | 20 ft | 2 kts | 296° |
| 2026-04-23 06:39 | -27.38475 | 153.12137 | 20 ft | 1 kts | 296° |
| 2026-04-23 06:39 | -27.38474 | 153.12135 | 20 ft | 0 kts | 296° |